createdAt,value
2018-05-24T04:18:14.938Z,6.97
2018-05-24T04:20:41.653Z,5.35
2018-05-24T04:23:08.370Z,5.70
2018-05-24T04:25:35.096Z,5.30
2018-05-24T04:28:01.838Z,5.57
2018-05-24T04:30:28.575Z,5.87
2018-05-24T04:32:55.369Z,5.35
2018-05-24T04:35:22.235Z,5.43
2018-05-24T04:37:49.028Z,5.32
2018-05-24T04:40:15.713Z,5.32
2018-05-24T04:42:42.531Z,5.70
2018-05-24T04:45:09.251Z,6.20
2018-05-24T04:47:36.015Z,6.37
2018-05-24T04:50:02.780Z,7.43
2018-05-24T04:52:29.496Z,6.20
2018-05-24T04:54:56.279Z,5.95
2018-05-24T04:57:23.026Z,6.40
2018-05-24T04:59:49.744Z,6.45
2018-05-24T05:02:16.463Z,6.15
2018-05-24T05:04:43.190Z,6.57
2018-05-24T05:07:09.936Z,6.37
2018-05-24T05:09:36.651Z,6.90
2018-05-24T05:12:03.355Z,6.97
2018-05-24T05:14:30.108Z,7.37
2018-05-24T05:16:56.839Z,6.70
2018-05-24T05:19:23.564Z,8.10
2018-05-24T05:21:50.310Z,6.70
2018-05-24T05:24:17.053Z,6.27
2018-05-24T05:26:43.781Z,6.67
2018-05-24T05:29:10.942Z,6.50
2018-05-24T05:31:37.738Z,7.10
2018-05-24T05:34:05.085Z,6.90
2018-05-24T05:36:31.811Z,7.40
2018-05-24T05:38:58.553Z,7.33
2018-05-24T05:41:25.318Z,7.33
2018-05-24T05:43:52.039Z,8.60
2018-05-24T05:46:18.746Z,7.73
2018-05-24T05:48:45.482Z,6.73
2018-05-24T05:51:12.198Z,10.33
2018-05-24T05:53:38.913Z,6.87
2018-05-24T05:56:05.648Z,7.43
2018-05-24T05:58:32.359Z,8.13
2018-05-24T06:00:59.105Z,6.90
2018-05-24T06:03:25.865Z,7.17
2018-05-24T06:05:52.802Z,7.60
2018-05-24T06:08:19.527Z,7.30
2018-05-24T06:10:46.234Z,6.70
2018-05-24T06:13:12.959Z,7.30
2018-05-24T06:15:39.774Z,7.10
2018-05-24T06:18:06.551Z,8.90
2018-05-24T06:20:33.264Z,7.33
2018-05-24T06:22:59.999Z,7.60
2018-05-24T06:25:26.753Z,7.20
2018-05-24T06:27:53.945Z,8.03
2018-05-24T06:30:20.677Z,7.50
2018-05-24T06:32:47.388Z,7.60
2018-05-24T06:35:14.111Z,7.63
2018-05-24T06:37:40.815Z,7.87
2018-05-24T06:40:07.555Z,7.80
2018-05-24T06:42:34.260Z,7.83
2018-05-24T06:45:00.996Z,7.33
2018-05-24T06:47:27.751Z,7.80
2018-05-24T06:49:54.474Z,8.30
2018-05-24T06:52:21.205Z,9.03
2018-05-24T06:54:47.903Z,7.67
2018-05-24T06:57:14.621Z,10.07
2018-05-24T06:59:41.348Z,8.73
2018-05-24T07:02:08.055Z,7.73
2018-05-24T07:04:34.784Z,7.50
2018-05-24T07:07:01.507Z,8.00
2018-05-24T07:09:28.254Z,7.27
2018-05-24T07:11:55.039Z,9.17
2018-05-24T07:14:21.784Z,7.10
2018-05-24T07:16:48.515Z,8.00
2018-05-24T07:19:15.240Z,7.73
2018-05-24T07:21:41.964Z,7.80
2018-05-24T07:24:08.795Z,8.97
2018-05-24T07:26:35.506Z,7.90
2018-05-24T07:29:02.246Z,7.80
2018-05-24T07:31:28.954Z,8.20
2018-05-24T07:33:55.696Z,6.90
2018-05-24T07:36:22.433Z,7.30
2018-05-24T07:38:49.148Z,9.00
2018-05-24T07:41:16.035Z,7.47
2018-05-24T07:43:42.749Z,8.00
2018-05-24T07:46:09.470Z,8.17
2018-05-24T07:48:36.503Z,7.67
2018-05-24T07:51:03.334Z,7.70
2018-05-24T07:53:30.171Z,8.80
2018-05-24T07:55:56.916Z,7.73
2018-05-24T07:58:23.764Z,10.00
2018-05-24T08:00:50.544Z,8.17
2018-05-24T08:03:17.276Z,7.33
2018-05-24T08:05:44.362Z,7.93
2018-05-24T08:08:11.223Z,7.97
2018-05-24T08:10:37.926Z,7.77
2018-05-24T08:13:04.635Z,7.73
2018-05-24T08:15:31.379Z,8.13
2018-05-24T08:17:58.124Z,7.37
2018-05-24T08:20:24.858Z,7.70
2018-05-24T08:22:51.709Z,7.27
2018-05-24T08:25:18.411Z,7.33
2018-05-24T08:27:45.119Z,7.53
2018-05-24T08:30:11.844Z,7.80
2018-05-24T08:32:38.548Z,7.07
2018-05-24T08:35:05.526Z,7.70
2018-05-24T08:37:32.216Z,6.60
2018-05-24T08:39:58.932Z,6.80
2018-05-24T08:42:25.688Z,7.13
2018-05-24T08:44:52.431Z,7.30
2018-05-24T08:47:19.168Z,7.17
2018-05-24T08:49:45.883Z,6.83
2018-05-24T08:52:12.610Z,7.53
2018-05-24T08:54:39.334Z,6.70
2018-05-24T08:57:06.070Z,6.93
2018-05-24T08:59:32.790Z,6.90
2018-05-24T09:01:59.511Z,7.90
2018-05-24T09:04:26.235Z,7.43
2018-05-24T09:06:52.967Z,7.30
2018-05-24T09:09:19.689Z,7.10
2018-05-24T09:11:46.392Z,6.37
2018-05-24T09:14:13.132Z,6.83
2018-05-24T09:16:39.871Z,6.60
2018-05-24T09:19:06.572Z,7.30
2018-05-24T09:21:33.283Z,6.87
2018-05-24T09:24:00.037Z,6.20
2018-05-24T09:26:26.743Z,6.87
2018-05-24T09:28:53.479Z,8.33
2018-05-24T09:31:20.212Z,7.20
2018-05-24T09:33:46.912Z,7.07
2018-05-24T09:36:13.728Z,6.47
2018-05-24T09:38:40.380Z,7.70
2018-05-24T09:41:07.116Z,6.70
2018-05-24T09:43:34.000Z,6.60
2018-05-24T09:46:01.702Z,6.27
2018-05-24T09:48:29.116Z,6.10
2018-05-24T09:50:56.932Z,6.10
2018-05-24T09:53:23.722Z,7.50
2018-05-24T09:55:50.440Z,6.00
2018-05-24T09:58:17.175Z,6.20
2018-05-24T10:00:43.879Z,6.20
2018-05-24T10:03:10.584Z,5.60
2018-05-24T10:05:37.345Z,5.67
2018-05-24T10:08:04.075Z,6.63
2018-05-24T10:10:30.887Z,6.00
2018-05-24T10:12:57.543Z,6.63
2018-05-24T10:15:24.316Z,8.50
2018-05-24T10:17:51.974Z,6.20
2018-05-24T10:20:20.176Z,8.03
2018-05-24T10:22:48.183Z,6.50
2018-05-24T10:25:14.940Z,6.30
2018-05-24T10:27:42.656Z,5.77
2018-05-24T10:30:09.592Z,6.73
2018-05-24T10:32:37.104Z,7.00
2018-05-24T10:35:05.200Z,6.40
2018-05-24T10:37:33.281Z,6.53
2018-05-24T10:40:00.086Z,6.20
2018-05-24T10:42:26.797Z,6.90
2018-05-24T10:44:53.532Z,7.03
2018-05-24T10:47:20.238Z,6.47
2018-05-24T10:49:46.964Z,7.00
2018-05-24T10:52:13.689Z,6.10
2018-05-24T10:54:40.442Z,6.63
2018-05-24T10:57:07.147Z,5.93
2018-05-24T10:59:33.887Z,6.60
2018-05-24T11:02:00.652Z,6.30
2018-05-24T11:04:27.385Z,6.33
2018-05-24T11:06:54.118Z,6.63
2018-05-24T11:09:20.832Z,7.90
2018-05-24T11:11:47.668Z,6.23
2018-05-24T11:14:14.323Z,6.90
2018-05-24T11:16:41.026Z,6.77
2018-05-24T11:19:07.747Z,6.70
2018-05-24T11:21:34.458Z,9.30
2018-05-24T11:24:01.212Z,8.40
2018-05-24T11:26:28.202Z,7.43
2018-05-24T11:28:54.942Z,6.83
2018-05-24T11:31:21.675Z,7.73
2018-05-24T11:33:48.382Z,7.00
2018-05-24T11:36:15.127Z,6.43
2018-05-24T11:38:41.831Z,8.07
2018-05-24T11:41:08.559Z,7.27
2018-05-24T11:43:35.288Z,6.97
2018-05-24T11:46:02.009Z,6.90
2018-05-24T11:48:28.751Z,7.30
2018-05-24T11:50:55.459Z,7.00
2018-05-24T11:53:22.172Z,10.50
2018-05-24T11:55:48.960Z,8.03
2018-05-24T11:58:15.671Z,8.20
2018-05-24T12:00:42.407Z,8.20
2018-05-24T12:03:09.120Z,8.40
2018-05-24T12:05:35.832Z,8.03
2018-05-24T12:08:02.565Z,8.27
2018-05-24T12:10:29.303Z,7.93
2018-05-24T12:12:56.038Z,8.00
2018-05-24T12:15:22.798Z,8.57
2018-05-24T12:17:49.511Z,8.17
2018-05-24T12:20:16.211Z,9.43
2018-05-24T12:22:42.935Z,8.50
2018-05-24T12:25:09.663Z,8.30
2018-05-24T12:27:36.395Z,8.77
2018-05-24T12:30:03.150Z,8.57
2018-05-24T12:32:29.882Z,8.10
2018-05-24T12:34:56.616Z,8.40
2018-05-24T12:37:23.340Z,8.00
2018-05-24T12:39:50.056Z,7.93
2018-05-24T12:42:16.787Z,8.33
2018-05-24T12:44:43.526Z,9.50
2018-05-24T12:47:10.235Z,8.30
2018-05-24T12:49:36.936Z,8.13
2018-05-24T12:52:03.685Z,8.73
2018-05-24T12:54:30.417Z,7.90
2018-05-24T12:56:57.126Z,8.37
2018-05-24T12:59:23.962Z,8.30
2018-05-24T13:01:50.697Z,8.60
2018-05-24T13:04:17.449Z,8.70
2018-05-24T13:06:44.142Z,8.13
2018-05-24T13:09:10.958Z,10.50
2018-05-24T13:11:37.679Z,8.47
2018-05-24T13:14:04.822Z,8.17
2018-05-24T13:16:31.994Z,10.03
2018-05-24T13:18:58.779Z,8.70
2018-05-24T13:21:25.514Z,9.03
2018-05-24T13:23:53.283Z,9.03
2018-05-24T13:26:20.622Z,8.53
2018-05-24T13:28:47.477Z,8.07
2018-05-24T13:31:14.232Z,7.73
2018-05-24T13:33:41.871Z,8.37
2018-05-24T13:36:08.704Z,8.60
2018-05-24T13:38:36.984Z,8.50
2018-05-24T13:41:03.735Z,7.83
2018-05-24T13:43:30.606Z,7.53
2018-05-24T13:45:57.901Z,8.90
2018-05-24T13:48:25.544Z,7.80
2018-05-24T13:50:53.035Z,8.30
2018-05-24T13:53:21.677Z,8.20
2018-05-24T13:55:50.412Z,7.80
2018-05-24T13:58:17.927Z,6.93
2018-05-24T14:00:45.201Z,7.93
2018-05-24T14:03:11.935Z,8.40
2018-05-24T14:05:39.005Z,7.97
2018-05-24T14:08:06.057Z,8.03
2018-05-24T14:10:34.269Z,7.50
2018-05-24T14:13:02.382Z,8.93
2018-05-24T14:15:29.184Z,7.80
2018-05-24T14:17:56.277Z,7.30
2018-05-24T14:20:24.510Z,7.30
2018-05-24T14:22:52.666Z,7.47
2018-05-24T14:25:19.988Z,8.33
2018-05-24T14:27:47.311Z,7.27
2018-05-24T14:30:14.185Z,7.90
2018-05-24T14:32:41.653Z,7.53
2018-05-24T14:35:09.199Z,7.97
2018-05-24T14:37:35.932Z,8.03
2018-05-24T14:40:02.913Z,8.03
2018-05-24T14:42:31.483Z,8.50
2018-05-24T14:44:59.255Z,7.47
2018-05-24T14:47:26.723Z,8.80
2018-05-24T14:49:54.344Z,8.20
2018-05-24T14:52:22.362Z,7.57
2018-05-24T14:54:51.920Z,7.73
2018-05-24T14:57:20.727Z,8.43
2018-05-24T14:59:49.828Z,8.10
2018-05-24T15:02:18.162Z,8.27
2018-05-24T15:04:46.502Z,7.57
2018-05-24T15:07:14.640Z,7.83
2018-05-24T15:09:42.735Z,7.50
2018-05-24T15:12:10.041Z,7.80
2018-05-24T15:14:37.732Z,8.03
2018-05-24T15:17:06.174Z,8.53
2018-05-24T15:19:35.422Z,8.03
2018-05-24T15:22:03.590Z,8.67
2018-05-24T15:24:30.600Z,8.83
2018-05-24T15:26:58.035Z,8.30
2018-05-24T15:29:25.678Z,8.40
2018-05-24T15:31:53.827Z,7.73
2018-05-24T15:34:21.667Z,8.70
2018-05-24T15:36:50.065Z,8.47
2018-05-24T15:39:18.096Z,9.00
2018-05-24T15:41:46.428Z,9.10
2018-05-24T15:44:14.159Z,9.67
2018-05-24T15:46:42.206Z,8.63
2018-05-24T15:49:10.231Z,8.47
2018-05-24T15:51:37.107Z,8.20
2018-05-24T15:54:05.865Z,7.73
2018-05-24T15:56:34.282Z,8.20
2018-05-24T15:59:03.096Z,8.40
2018-05-24T16:01:30.875Z,10.07
2018-05-24T16:03:58.789Z,11.27
2018-05-24T16:06:26.860Z,11.80
2018-05-24T16:08:54.460Z,13.30
2018-05-24T16:11:22.318Z,11.90
2018-05-24T16:13:49.323Z,12.67
2018-05-24T16:16:17.156Z,12.27
2018-05-24T16:18:46.534Z,12.13
2018-05-24T16:21:14.497Z,13.10
2018-05-24T16:23:43.321Z,12.50
2018-05-24T16:26:10.587Z,11.97
2018-05-24T16:28:37.294Z,12.50
2018-05-24T16:31:04.037Z,12.60
2018-05-24T16:33:30.751Z,13.47
2018-05-24T16:35:57.506Z,13.27
2018-05-24T16:38:24.230Z,11.63
2018-05-24T16:40:50.965Z,11.30
2018-05-24T16:43:17.671Z,10.43
2018-05-24T16:45:44.478Z,10.50
2018-05-24T16:48:11.215Z,11.17
2018-05-24T16:50:38.030Z,10.57
2018-05-24T16:53:04.760Z,10.93
2018-05-24T16:55:31.493Z,10.37
2018-05-24T16:57:58.284Z,9.67
2018-05-24T17:00:25.063Z,12.20
2018-05-24T17:02:51.779Z,13.70
2018-05-24T17:05:18.515Z,14.23
2018-05-24T17:07:45.227Z,14.83
2018-05-24T17:10:11.977Z,15.93
2018-05-24T17:12:38.767Z,15.03
2018-05-24T17:15:05.448Z,15.13
2018-05-24T17:17:32.198Z,14.70
2018-05-24T17:19:58.909Z,15.40
2018-05-24T17:22:25.650Z,15.47
2018-05-24T17:24:52.425Z,14.13
2018-05-24T17:27:19.144Z,15.53
2018-05-24T17:29:45.867Z,15.40
2018-05-24T17:32:12.611Z,16.93
2018-05-24T17:34:39.337Z,14.53
2018-05-24T17:37:06.055Z,16.77
2018-05-24T17:39:32.811Z,16.70
2018-05-24T17:41:59.591Z,17.27
2018-05-24T17:44:26.355Z,16.27
2018-05-24T17:46:53.095Z,17.40
2018-05-24T17:49:19.857Z,17.27
2018-05-24T17:51:46.567Z,16.33
2018-05-24T17:54:13.303Z,18.60
2018-05-24T17:56:40.030Z,16.40
2018-05-24T17:59:06.776Z,17.23
2018-05-24T18:01:33.504Z,17.40
2018-05-24T18:04:00.267Z,16.37
2018-05-24T18:06:27.008Z,15.80
2018-05-24T18:08:53.727Z,18.20
2018-05-24T18:11:20.483Z,16.97
2018-05-24T18:13:47.247Z,16.67
2018-05-24T18:16:13.997Z,16.50
2018-05-24T18:18:40.712Z,16.47
2018-05-24T18:21:07.478Z,16.90
2018-05-24T18:23:34.203Z,16.17
2018-05-24T18:26:00.926Z,15.97
2018-05-24T18:28:27.687Z,16.30
2018-05-24T18:30:54.411Z,15.67
2018-05-24T18:33:21.152Z,17.57
2018-05-24T18:35:47.875Z,16.10
2018-05-24T18:38:14.643Z,16.77
2018-05-24T18:40:41.371Z,15.60
2018-05-24T18:43:08.112Z,16.57
2018-05-24T18:45:34.833Z,15.50
2018-05-24T18:48:01.611Z,19.50
2018-05-24T18:50:28.341Z,16.53
2018-05-24T18:52:55.069Z,17.20
2018-05-24T18:55:21.816Z,15.70
2018-05-24T18:57:48.531Z,15.73
2018-05-24T19:00:15.242Z,16.10
2018-05-24T19:02:41.987Z,15.67
2018-05-24T19:05:08.727Z,14.80
2018-05-24T19:07:35.444Z,13.93
2018-05-24T19:10:02.210Z,13.87
2018-05-24T19:12:28.942Z,14.00
2018-05-24T19:14:55.710Z,15.10
2018-05-24T19:17:22.424Z,14.80
2018-05-24T19:19:49.154Z,15.27
2018-05-24T19:22:15.888Z,14.70
2018-05-24T19:24:42.630Z,14.17
2018-05-24T19:27:09.339Z,15.27
2018-05-24T19:29:36.054Z,14.70
2018-05-24T19:32:02.820Z,17.20
2018-05-24T19:34:29.561Z,19.07
2018-05-24T19:36:56.334Z,19.90
2018-05-24T19:39:23.057Z,23.63
2018-05-24T19:41:49.795Z,21.13
2018-05-24T19:44:16.512Z,26.40
2018-05-24T19:46:43.269Z,26.97
2018-05-24T19:49:09.995Z,26.13
2018-05-24T19:51:36.773Z,26.40
2018-05-24T19:54:03.527Z,28.60
2018-05-24T19:56:30.264Z,28.47
2018-05-24T19:58:57.048Z,22.13
2018-05-24T20:01:23.776Z,16.83
2018-05-24T20:03:50.492Z,13.87
2018-05-24T20:06:17.547Z,21.67
2018-05-24T20:08:44.724Z,17.80
2018-05-24T20:11:11.814Z,17.23
2018-05-24T20:13:38.900Z,14.30
2018-05-24T20:16:06.016Z,11.93
2018-05-24T20:18:33.400Z,11.00
2018-05-24T20:21:00.794Z,9.67
2018-05-24T20:23:27.957Z,8.80
2018-05-24T20:25:55.093Z,11.13
2018-05-24T20:28:22.173Z,8.83
2018-05-24T20:30:49.281Z,9.03
2018-05-24T20:33:16.349Z,8.40
2018-05-24T20:35:43.453Z,8.93
2018-05-24T20:38:10.507Z,7.47
2018-05-24T20:40:38.363Z,6.93
2018-05-24T20:43:05.450Z,6.40
2018-05-24T20:45:32.563Z,6.73
2018-05-24T20:48:00.470Z,7.17
2018-05-24T20:50:27.592Z,6.70
2018-05-24T20:52:55.114Z,6.50
2018-05-24T20:55:22.179Z,6.47
2018-05-24T20:57:49.306Z,6.13
2018-05-24T21:00:16.380Z,9.10
2018-05-24T21:02:43.479Z,6.60
2018-05-24T21:05:10.579Z,5.90
2018-05-24T21:07:38.540Z,5.90
2018-05-24T21:10:05.883Z,6.13
2018-05-24T21:12:33.210Z,6.10
2018-05-24T21:15:00.442Z,6.80
2018-05-24T21:17:27.639Z,7.57
2018-05-24T21:19:54.939Z,6.07
2018-05-24T21:22:22.024Z,6.00
2018-05-24T21:24:49.130Z,5.90
2018-05-24T21:27:16.157Z,6.20
2018-05-24T21:29:43.201Z,6.80
2018-05-24T21:32:10.275Z,5.93
2018-05-24T21:34:37.302Z,5.70
2018-05-24T21:37:04.370Z,6.17
2018-05-24T21:39:31.309Z,6.20
2018-05-24T21:41:58.600Z,6.00
2018-05-24T21:44:25.440Z,6.27
2018-05-24T21:46:52.298Z,9.40
2018-05-24T21:49:19.168Z,5.93
2018-05-24T21:51:45.984Z,5.73
2018-05-24T21:54:12.839Z,6.63
2018-05-24T21:56:39.735Z,6.03
2018-05-24T21:59:06.575Z,6.17
2018-05-24T22:01:33.404Z,6.10
2018-05-24T22:04:00.282Z,6.60
2018-05-24T22:06:27.131Z,6.23
2018-05-24T22:08:53.964Z,6.10
2018-05-24T22:11:20.752Z,6.53
2018-05-24T22:13:47.540Z,6.20
2018-05-24T22:16:14.351Z,5.83
2018-05-24T22:18:41.131Z,6.10
2018-05-24T22:21:07.899Z,5.60
2018-05-24T22:23:34.682Z,6.07
2018-05-24T22:26:01.465Z,6.13
2018-05-24T22:28:28.294Z,5.80
2018-05-24T22:30:55.063Z,6.80
2018-05-24T22:33:21.895Z,6.20
2018-05-24T22:35:48.687Z,6.73
2018-05-24T22:38:15.415Z,6.47
2018-05-24T22:40:42.137Z,6.53
2018-05-24T22:43:08.860Z,6.20
2018-05-24T22:45:35.559Z,6.60
2018-05-24T22:48:02.401Z,7.63
2018-05-24T22:50:29.157Z,6.70
2018-05-24T22:52:55.897Z,7.00
2018-05-24T22:55:22.651Z,6.73
2018-05-24T22:57:49.417Z,7.07
2018-05-24T23:00:16.151Z,7.33
2018-05-24T23:02:42.881Z,7.50
2018-05-24T23:05:09.626Z,7.07
2018-05-24T23:07:36.333Z,7.47
2018-05-24T23:10:03.045Z,7.37
2018-05-24T23:12:29.782Z,6.67
2018-05-24T23:14:56.503Z,6.87
2018-05-24T23:17:23.208Z,8.83
2018-05-24T23:19:49.935Z,9.77
2018-05-24T23:22:22.572Z,6.87
2018-05-24T23:24:49.296Z,7.40
2018-05-24T23:27:16.003Z,6.70
2018-05-24T23:29:42.764Z,7.33
2018-05-24T23:32:09.471Z,7.60
2018-05-24T23:34:36.402Z,6.87
2018-05-24T23:37:03.249Z,7.27
2018-05-24T23:39:30.052Z,7.90
2018-05-24T23:41:57.181Z,6.37
2018-05-24T23:44:24.641Z,7.80
2018-05-24T23:46:51.360Z,7.17
2018-05-24T23:49:18.091Z,10.13
2018-05-24T23:51:44.821Z,10.90
2018-05-24T23:54:11.567Z,8.00
2018-05-24T23:56:38.276Z,7.50
2018-05-24T23:59:04.983Z,7.90
